sensor_id;sensor_type;location;lat;lon;timestamp;P1;durP1;ratioP1;P2;durP2;ratioP2
65769;SDS011;52512;47.650;8.578;2023-05-02T00:00:24;3.17;;;2.97;;
65769;SDS011;52512;47.650;8.578;2023-05-02T00:02:50;2.70;;;2.53;;
65769;SDS011;52512;47.650;8.578;2023-05-02T00:05:15;3.40;;;3.10;;
65769;SDS011;52512;47.650;8.578;2023-05-02T00:07:41;3.07;;;2.77;;
65769;SDS011;52512;47.650;8.578;2023-05-02T00:10:07;5.37;;;2.90;;
65769;SDS011;52512;47.650;8.578;2023-05-02T00:12:33;3.83;;;2.67;;
65769;SDS011;52512;47.650;8.578;2023-05-02T00:14:59;3.40;;;3.10;;
65769;SDS011;52512;47.650;8.578;2023-05-02T00:17:25;10.30;;;3.10;;
65769;SDS011;52512;47.650;8.578;2023-05-02T00:19:51;3.87;;;3.27;;
65769;SDS011;52512;47.650;8.578;2023-05-02T00:22:16;5.20;;;3.60;;
65769;SDS011;52512;47.650;8.578;2023-05-02T00:24:42;4.17;;;3.33;;
65769;SDS011;52512;47.650;8.578;2023-05-02T00:27:08;4.03;;;3.30;;
65769;SDS011;52512;47.650;8.578;2023-05-02T00:29:33;6.80;;;3.30;;
65769;SDS011;52512;47.650;8.578;2023-05-02T00:31:59;4.73;;;3.40;;
65769;SDS011;52512;47.650;8.578;2023-05-02T00:34:28;4.63;;;3.88;;
65769;SDS011;52512;47.650;8.578;2023-05-02T00:36:55;4.07;;;2.90;;
65769;SDS011;52512;47.650;8.578;2023-05-02T00:39:21;4.80;;;3.30;;
65769;SDS011;52512;47.650;8.578;2023-05-02T00:41:46;3.20;;;2.90;;
65769;SDS011;52512;47.650;8.578;2023-05-02T00:44:12;8.52;;;4.10;;
65769;SDS011;52512;47.650;8.578;2023-05-02T00:46:38;3.03;;;2.70;;
65769;SDS011;52512;47.650;8.578;2023-05-02T00:49:04;2.90;;;2.70;;
65769;SDS011;52512;47.650;8.578;2023-05-02T00:51:31;2.67;;;2.47;;
65769;SDS011;52512;47.650;8.578;2023-05-02T00:53:57;9.73;;;3.75;;
65769;SDS011;52512;47.650;8.578;2023-05-02T00:56:24;5.13;;;3.30;;
65769;SDS011;52512;47.650;8.578;2023-05-02T00:58:50;4.00;;;3.47;;
65769;SDS011;52512;47.650;8.578;2023-05-02T01:06:47;9.48;;;2.75;;
65769;SDS011;52512;47.650;8.578;2023-05-02T01:12:03;4.97;;;3.15;;
65769;SDS011;52512;47.650;8.578;2023-05-02T01:14:40;7.78;;;2.50;;
65769;SDS011;52512;47.650;8.578;2023-05-02T01:17:09;3.22;;;2.80;;
65769;SDS011;52512;47.650;8.578;2023-05-02T01:19:42;3.25;;;2.95;;
65769;SDS011;52512;47.650;8.578;2023-05-02T01:22:16;2.72;;;2.45;;
65769;SDS011;52512;47.650;8.578;2023-05-02T01:30:25;3.42;;;3.13;;
65769;SDS011;52512;47.650;8.578;2023-05-02T01:32:52;12.20;;;2.53;;
65769;SDS011;52512;47.650;8.578;2023-05-02T01:35:21;5.57;;;4.40;;
65769;SDS011;52512;47.650;8.578;2023-05-02T01:37:48;4.35;;;3.15;;
65769;SDS011;52512;47.650;8.578;2023-05-02T01:40:18;3.40;;;2.85;;
65769;SDS011;52512;47.650;8.578;2023-05-02T01:42:46;5.15;;;4.05;;
65769;SDS011;52512;47.650;8.578;2023-05-02T01:45:14;5.65;;;3.75;;
65769;SDS011;52512;47.650;8.578;2023-05-02T01:47:40;5.22;;;3.33;;
65769;SDS011;52512;47.650;8.578;2023-05-02T01:50:08;5.53;;;3.60;;
65769;SDS011;52512;47.650;8.578;2023-05-02T01:52:37;8.30;;;3.38;;
65769;SDS011;52512;47.650;8.578;2023-05-02T01:55:05;7.25;;;3.70;;
65769;SDS011;52512;47.650;8.578;2023-05-02T01:57:36;8.32;;;3.95;;
65769;SDS011;52512;47.650;8.578;2023-05-02T02:00:04;5.50;;;3.90;;
65769;SDS011;52512;47.650;8.578;2023-05-02T02:02:32;3.95;;;3.10;;
65769;SDS011;52512;47.650;8.578;2023-05-02T02:04:59;4.07;;;2.85;;
65769;SDS011;52512;47.650;8.578;2023-05-02T02:07:28;5.20;;;3.13;;
65769;SDS011;52512;47.650;8.578;2023-05-02T02:09:54;5.10;;;3.60;;
65769;SDS011;52512;47.650;8.578;2023-05-02T02:12:25;4.83;;;3.60;;
65769;SDS011;52512;47.650;8.578;2023-05-02T02:15:05;3.35;;;3.05;;
65769;SDS011;52512;47.650;8.578;2023-05-02T02:20:27;2.67;;;2.47;;
65769;SDS011;52512;47.650;8.578;2023-05-02T02:22:54;3.55;;;3.13;;
65769;SDS011;52512;47.650;8.578;2023-05-02T02:25:21;4.07;;;3.28;;
65769;SDS011;52512;47.650;8.578;2023-05-02T02:27:48;3.28;;;2.95;;
65769;SDS011;52512;47.650;8.578;2023-05-02T02:30:15;4.65;;;3.42;;
65769;SDS011;52512;47.650;8.578;2023-05-02T02:32:41;5.33;;;3.17;;
65769;SDS011;52512;47.650;8.578;2023-05-02T02:35:07;5.57;;;4.17;;
65769;SDS011;52512;47.650;8.578;2023-05-02T02:37:38;4.40;;;3.70;;
65769;SDS011;52512;47.650;8.578;2023-05-02T02:49:47;3.03;;;2.50;;
65769;SDS011;52512;47.650;8.578;2023-05-02T02:52:15;3.63;;;3.33;;
65769;SDS011;52512;47.650;8.578;2023-05-02T02:54:46;3.90;;;3.35;;
65769;SDS011;52512;47.650;8.578;2023-05-02T02:57:17;4.00;;;2.95;;
65769;SDS011;52512;47.650;8.578;2023-05-02T02:59:57;3.17;;;2.90;;
65769;SDS011;52512;47.650;8.578;2023-05-02T03:02:33;13.88;;;2.90;;
65769;SDS011;52512;47.650;8.578;2023-05-02T03:05:01;2.42;;;2.22;;
65769;SDS011;52512;47.650;8.578;2023-05-02T03:07:27;3.20;;;2.45;;
65769;SDS011;52512;47.650;8.578;2023-05-02T03:09:54;3.10;;;2.67;;
65769;SDS011;52512;47.650;8.578;2023-05-02T03:12:20;4.13;;;2.70;;
65769;SDS011;52512;47.650;8.578;2023-05-02T03:14:45;2.90;;;2.60;;
65769;SDS011;52512;47.650;8.578;2023-05-02T03:17:11;3.77;;;3.40;;
65769;SDS011;52512;47.650;8.578;2023-05-02T03:19:37;3.10;;;2.80;;
65769;SDS011;52512;47.650;8.578;2023-05-02T03:22:03;6.43;;;3.57;;
65769;SDS011;52512;47.650;8.578;2023-05-02T03:24:29;3.22;;;3.03;;
65769;SDS011;52512;47.650;8.578;2023-05-02T03:26:55;4.17;;;3.77;;
65769;SDS011;52512;47.650;8.578;2023-05-02T03:29:23;4.20;;;2.92;;
65769;SDS011;52512;47.650;8.578;2023-05-02T03:31:49;5.47;;;3.97;;
65769;SDS011;52512;47.650;8.578;2023-05-02T03:34:15;3.47;;;3.00;;
65769;SDS011;52512;47.650;8.578;2023-05-02T03:36:41;6.80;;;2.80;;
65769;SDS011;52512;47.650;8.578;2023-05-02T03:39:07;3.10;;;2.90;;
65769;SDS011;52512;47.650;8.578;2023-05-02T03:41:33;3.10;;;2.80;;
65769;SDS011;52512;47.650;8.578;2023-05-02T03:43:59;4.20;;;3.20;;
65769;SDS011;52512;47.650;8.578;2023-05-02T03:46:24;3.37;;;3.07;;
65769;SDS011;52512;47.650;8.578;2023-05-02T03:48:50;3.10;;;2.90;;
65769;SDS011;52512;47.650;8.578;2023-05-02T03:51:16;3.73;;;3.43;;
65769;SDS011;52512;47.650;8.578;2023-05-02T03:53:41;5.57;;;3.13;;
65769;SDS011;52512;47.650;8.578;2023-05-02T03:56:07;5.60;;;4.40;;
65769;SDS011;52512;47.650;8.578;2023-05-02T03:58:33;3.73;;;2.83;;
65769;SDS011;52512;47.650;8.578;2023-05-02T04:01:02;5.65;;;3.00;;
65769;SDS011;52512;47.650;8.578;2023-05-02T04:03:28;3.33;;;2.77;;
65769;SDS011;52512;47.650;8.578;2023-05-02T04:05:53;5.63;;;3.00;;
65769;SDS011;52512;47.650;8.578;2023-05-02T04:08:19;2.77;;;2.57;;
65769;SDS011;52512;47.650;8.578;2023-05-02T04:10:45;4.30;;;3.17;;
65769;SDS011;52512;47.650;8.578;2023-05-02T04:13:10;3.57;;;2.97;;
65769;SDS011;52512;47.650;8.578;2023-05-02T04:15:36;3.80;;;3.30;;
65769;SDS011;52512;47.650;8.578;2023-05-02T04:18:02;4.50;;;3.67;;
65769;SDS011;52512;47.650;8.578;2023-05-02T04:20:28;4.03;;;3.65;;
65769;SDS011;52512;47.650;8.578;2023-05-02T04:22:54;6.87;;;2.80;;
65769;SDS011;52512;47.650;8.578;2023-05-02T04:25:19;3.50;;;3.10;;
65769;SDS011;52512;47.650;8.578;2023-05-02T04:27:45;6.40;;;2.60;;
65769;SDS011;52512;47.650;8.578;2023-05-02T04:30:11;3.40;;;2.90;;
65769;SDS011;52512;47.650;8.578;2023-05-02T04:32:37;5.15;;;3.60;;
65769;SDS011;52512;47.650;8.578;2023-05-02T04:35:03;4.50;;;2.93;;
65769;SDS011;52512;47.650;8.578;2023-05-02T04:37:30;6.65;;;3.45;;
65769;SDS011;52512;47.650;8.578;2023-05-02T04:39:55;2.93;;;2.63;;
65769;SDS011;52512;47.650;8.578;2023-05-02T04:42:22;3.40;;;2.50;;
65769;SDS011;52512;47.650;8.578;2023-05-02T04:44:47;4.15;;;3.40;;
65769;SDS011;52512;47.650;8.578;2023-05-02T04:47:14;5.60;;;3.38;;
65769;SDS011;52512;47.650;8.578;2023-05-02T04:49:40;3.40;;;3.10;;
65769;SDS011;52512;47.650;8.578;2023-05-02T04:52:06;3.53;;;2.95;;
65769;SDS011;52512;47.650;8.578;2023-05-02T04:54:33;3.90;;;3.17;;
65769;SDS011;52512;47.650;8.578;2023-05-02T04:56:59;3.57;;;2.70;;
65769;SDS011;52512;47.650;8.578;2023-05-02T04:59:27;5.60;;;3.78;;
65769;SDS011;52512;47.650;8.578;2023-05-02T05:01:53;6.90;;;3.78;;
65769;SDS011;52512;47.650;8.578;2023-05-02T05:04:19;4.23;;;3.60;;
65769;SDS011;52512;47.650;8.578;2023-05-02T05:06:45;5.67;;;3.97;;
65769;SDS011;52512;47.650;8.578;2023-05-02T05:09:12;5.18;;;3.90;;
65769;SDS011;52512;47.650;8.578;2023-05-02T05:11:37;4.03;;;2.80;;
65769;SDS011;52512;47.650;8.578;2023-05-02T05:14:03;4.73;;;3.60;;
65769;SDS011;52512;47.650;8.578;2023-05-02T05:16:29;3.37;;;3.17;;
65769;SDS011;52512;47.650;8.578;2023-05-02T05:18:55;4.22;;;3.33;;
65769;SDS011;52512;47.650;8.578;2023-05-02T05:21:21;3.50;;;3.20;;
65769;SDS011;52512;47.650;8.578;2023-05-02T05:23:47;4.93;;;4.03;;
65769;SDS011;52512;47.650;8.578;2023-05-02T05:26:13;3.70;;;3.40;;
65769;SDS011;52512;47.650;8.578;2023-05-02T05:28:40;4.80;;;4.05;;
65769;SDS011;52512;47.650;8.578;2023-05-02T05:31:07;8.25;;;4.50;;
65769;SDS011;52512;47.650;8.578;2023-05-02T05:33:34;6.82;;;4.32;;
65769;SDS011;52512;47.650;8.578;2023-05-02T05:36:04;6.60;;;3.63;;
65769;SDS011;52512;47.650;8.578;2023-05-02T05:38:30;6.10;;;4.10;;
65769;SDS011;52512;47.650;8.578;2023-05-02T05:40:56;8.60;;;5.43;;
65769;SDS011;52512;47.650;8.578;2023-05-02T05:43:22;10.03;;;5.60;;
65769;SDS011;52512;47.650;8.578;2023-05-02T05:45:50;9.43;;;3.90;;
65769;SDS011;52512;47.650;8.578;2023-05-02T05:48:16;11.18;;;3.70;;
65769;SDS011;52512;47.650;8.578;2023-05-02T05:50:42;9.73;;;5.93;;
65769;SDS011;52512;47.650;8.578;2023-05-02T05:53:08;13.83;;;5.77;;
65769;SDS011;52512;47.650;8.578;2023-05-02T05:55:34;10.40;;;5.67;;
65769;SDS011;52512;47.650;8.578;2023-05-02T05:58:00;10.35;;;7.20;;
65769;SDS011;52512;47.650;8.578;2023-05-02T06:00:26;8.37;;;5.60;;
65769;SDS011;52512;47.650;8.578;2023-05-02T06:02:52;12.87;;;6.70;;
65769;SDS011;52512;47.650;8.578;2023-05-02T06:05:17;18.60;;;6.20;;
65769;SDS011;52512;47.650;8.578;2023-05-02T06:07:43;10.00;;;5.70;;
65769;SDS011;52512;47.650;8.578;2023-05-02T06:10:09;16.10;;;5.97;;
65769;SDS011;52512;47.650;8.578;2023-05-02T06:12:34;7.73;;;4.63;;
65769;SDS011;52512;47.650;8.578;2023-05-02T06:15:00;10.17;;;6.37;;
65769;SDS011;52512;47.650;8.578;2023-05-02T06:17:26;14.27;;;7.27;;
65769;SDS011;52512;47.650;8.578;2023-05-02T06:19:51;14.40;;;7.80;;
65769;SDS011;52512;47.650;8.578;2023-05-02T06:22:17;15.00;;;8.17;;
65769;SDS011;52512;47.650;8.578;2023-05-02T06:24:43;13.00;;;7.50;;
65769;SDS011;52512;47.650;8.578;2023-05-02T06:27:08;17.73;;;7.63;;
65769;SDS011;52512;47.650;8.578;2023-05-02T06:29:34;14.83;;;8.20;;
65769;SDS011;52512;47.650;8.578;2023-05-02T06:32:00;13.10;;;7.47;;
65769;SDS011;52512;47.650;8.578;2023-05-02T06:34:26;28.33;;;6.47;;
65769;SDS011;52512;47.650;8.578;2023-05-02T06:36:54;14.70;;;8.17;;
65769;SDS011;52512;47.650;8.578;2023-05-02T06:39:20;17.08;;;7.97;;
65769;SDS011;52512;47.650;8.578;2023-05-02T06:41:46;12.50;;;8.27;;
65769;SDS011;52512;47.650;8.578;2023-05-02T06:44:12;15.30;;;8.10;;
65769;SDS011;52512;47.650;8.578;2023-05-02T06:46:38;15.37;;;8.80;;
65769;SDS011;52512;47.650;8.578;2023-05-02T06:49:04;13.50;;;8.20;;
65769;SDS011;52512;47.650;8.578;2023-05-02T06:51:30;12.82;;;8.02;;
65769;SDS011;52512;47.650;8.578;2023-05-02T06:53:56;15.80;;;7.23;;
65769;SDS011;52512;47.650;8.578;2023-05-02T06:56:22;17.37;;;8.83;;
65769;SDS011;52512;47.650;8.578;2023-05-02T06:58:51;12.70;;;7.50;;
65769;SDS011;52512;47.650;8.578;2023-05-02T07:01:17;13.40;;;7.27;;
65769;SDS011;52512;47.650;8.578;2023-05-02T07:03:42;10.50;;;6.97;;
65769;SDS011;52512;47.650;8.578;2023-05-02T07:06:10;13.38;;;7.00;;
65769;SDS011;52512;47.650;8.578;2023-05-02T07:08:36;16.13;;;8.23;;
65769;SDS011;52512;47.650;8.578;2023-05-02T07:11:01;13.60;;;7.40;;
65769;SDS011;52512;47.650;8.578;2023-05-02T07:13:27;9.40;;;6.37;;
65769;SDS011;52512;47.650;8.578;2023-05-02T07:15:53;12.60;;;6.50;;
65769;SDS011;52512;47.650;8.578;2023-05-02T07:18:19;12.95;;;6.78;;
65769;SDS011;52512;47.650;8.578;2023-05-02T07:20:45;9.00;;;5.70;;
65769;SDS011;52512;47.650;8.578;2023-05-02T07:23:11;14.10;;;7.97;;
65769;SDS011;52512;47.650;8.578;2023-05-02T07:25:36;19.93;;;7.57;;
65769;SDS011;52512;47.650;8.578;2023-05-02T07:28:03;12.20;;;6.88;;
65769;SDS011;52512;47.650;8.578;2023-05-02T07:30:29;19.47;;;7.30;;
65769;SDS011;52512;47.650;8.578;2023-05-02T07:32:55;14.30;;;7.60;;
65769;SDS011;52512;47.650;8.578;2023-05-02T07:35:21;12.30;;;7.20;;
65769;SDS011;52512;47.650;8.578;2023-05-02T07:37:46;16.53;;;7.37;;
65769;SDS011;52512;47.650;8.578;2023-05-02T07:40:12;14.17;;;8.37;;
65769;SDS011;52512;47.650;8.578;2023-05-02T07:42:38;16.17;;;8.40;;
65769;SDS011;52512;47.650;8.578;2023-05-02T07:45:06;15.93;;;8.15;;
65769;SDS011;52512;47.650;8.578;2023-05-02T07:47:32;12.60;;;7.60;;
65769;SDS011;52512;47.650;8.578;2023-05-02T07:49:58;12.93;;;8.60;;
65769;SDS011;52512;47.650;8.578;2023-05-02T07:52:24;19.60;;;8.37;;
65769;SDS011;52512;47.650;8.578;2023-05-02T07:54:50;17.08;;;8.50;;
65769;SDS011;52512;47.650;8.578;2023-05-02T07:57:16;14.00;;;7.25;;
65769;SDS011;52512;47.650;8.578;2023-05-02T07:59:42;12.32;;;7.57;;
65769;SDS011;52512;47.650;8.578;2023-05-02T08:02:08;13.93;;;6.35;;
65769;SDS011;52512;47.650;8.578;2023-05-02T08:04:37;17.02;;;8.40;;
65769;SDS011;52512;47.650;8.578;2023-05-02T08:07:03;12.07;;;7.13;;
65769;SDS011;52512;47.650;8.578;2023-05-02T08:09:28;13.90;;;8.67;;
65769;SDS011;52512;47.650;8.578;2023-05-02T08:11:54;13.65;;;7.78;;
65769;SDS011;52512;47.650;8.578;2023-05-02T08:14:20;15.40;;;7.67;;
65769;SDS011;52512;47.650;8.578;2023-05-02T08:16:46;8.33;;;6.40;;
65769;SDS011;52512;47.650;8.578;2023-05-02T08:19:12;11.20;;;7.50;;
65769;SDS011;52512;47.650;8.578;2023-05-02T08:21:37;12.70;;;7.73;;
65769;SDS011;52512;47.650;8.578;2023-05-02T08:24:03;11.40;;;7.33;;
65769;SDS011;52512;47.650;8.578;2023-05-02T08:26:29;12.23;;;8.30;;
65769;SDS011;52512;47.650;8.578;2023-05-02T08:28:55;11.60;;;7.37;;
65769;SDS011;52512;47.650;8.578;2023-05-02T08:31:20;13.43;;;7.60;;
65769;SDS011;52512;47.650;8.578;2023-05-02T08:33:46;11.07;;;7.67;;
65769;SDS011;52512;47.650;8.578;2023-05-02T08:36:16;11.07;;;6.80;;
65769;SDS011;52512;47.650;8.578;2023-05-02T08:38:42;12.88;;;7.38;;
65769;SDS011;52512;47.650;8.578;2023-05-02T08:41:09;11.77;;;6.57;;
65769;SDS011;52512;47.650;8.578;2023-05-02T08:43:37;11.30;;;7.60;;
65769;SDS011;52512;47.650;8.578;2023-05-02T08:46:04;10.18;;;7.10;;
65769;SDS011;52512;47.650;8.578;2023-05-02T08:48:37;10.70;;;6.95;;
65769;SDS011;52512;47.650;8.578;2023-05-02T08:51:07;10.70;;;6.63;;
65769;SDS011;52512;47.650;8.578;2023-05-02T08:53:37;15.63;;;9.37;;
65769;SDS011;52512;47.650;8.578;2023-05-02T08:56:07;14.48;;;8.10;;
65769;SDS011;52512;47.650;8.578;2023-05-02T08:58:38;9.27;;;6.28;;
65769;SDS011;52512;47.650;8.578;2023-05-02T09:01:12;13.25;;;7.78;;
65769;SDS011;52512;47.650;8.578;2023-05-02T09:03:41;10.48;;;6.60;;
65769;SDS011;52512;47.650;8.578;2023-05-02T09:06:12;11.38;;;6.80;;
65769;SDS011;52512;47.650;8.578;2023-05-02T09:08:44;11.60;;;7.20;;
65769;SDS011;52512;47.650;8.578;2023-05-02T09:11:13;20.23;;;8.13;;
65769;SDS011;52512;47.650;8.578;2023-05-02T09:13:40;8.80;;;6.10;;
65769;SDS011;52512;47.650;8.578;2023-05-02T09:16:11;10.48;;;7.38;;
65769;SDS011;52512;47.650;8.578;2023-05-02T09:18:38;14.27;;;7.60;;
65769;SDS011;52512;47.650;8.578;2023-05-02T09:21:14;10.85;;;7.28;;
65769;SDS011;52512;47.650;8.578;2023-05-02T09:23:45;8.73;;;6.80;;
65769;SDS011;52512;47.650;8.578;2023-05-02T09:26:18;12.97;;;6.77;;
65769;SDS011;52512;47.650;8.578;2023-05-02T09:28:49;8.60;;;6.63;;
65769;SDS011;52512;47.650;8.578;2023-05-02T09:31:22;13.15;;;6.75;;
65769;SDS011;52512;47.650;8.578;2023-05-02T09:33:54;10.60;;;6.47;;
65769;SDS011;52512;47.650;8.578;2023-05-02T09:36:21;12.70;;;6.60;;
65769;SDS011;52512;47.650;8.578;2023-05-02T09:38:48;10.70;;;7.10;;
65769;SDS011;52512;47.650;8.578;2023-05-02T09:41:15;9.53;;;6.60;;
65769;SDS011;52512;47.650;8.578;2023-05-02T09:43:53;13.90;;;6.73;;
65769;SDS011;52512;47.650;8.578;2023-05-02T09:46:23;13.60;;;7.00;;
65769;SDS011;52512;47.650;8.578;2023-05-02T09:48:56;8.77;;;6.40;;
65769;SDS011;52512;47.650;8.578;2023-05-02T09:51:23;10.23;;;6.60;;
65769;SDS011;52512;47.650;8.578;2023-05-02T09:53:50;6.77;;;5.67;;
65769;SDS011;52512;47.650;8.578;2023-05-02T09:56:16;9.60;;;6.10;;
65769;SDS011;52512;47.650;8.578;2023-05-02T09:58:42;14.47;;;7.07;;
65769;SDS011;52512;47.650;8.578;2023-05-02T10:01:15;9.60;;;5.93;;
65769;SDS011;52512;47.650;8.578;2023-05-02T10:03:44;8.00;;;5.57;;
65769;SDS011;52512;47.650;8.578;2023-05-02T10:06:12;15.40;;;6.90;;
65769;SDS011;52512;47.650;8.578;2023-05-02T10:08:46;11.97;;;5.80;;
65769;SDS011;52512;47.650;8.578;2023-05-02T10:11:12;6.50;;;5.40;;
65769;SDS011;52512;47.650;8.578;2023-05-02T10:13:39;10.33;;;6.10;;
65769;SDS011;52512;47.650;8.578;2023-05-02T10:16:06;6.00;;;5.20;;
65769;SDS011;52512;47.650;8.578;2023-05-02T10:19:17;9.83;;;6.00;;
65769;SDS011;52512;47.650;8.578;2023-05-02T10:21:27;7.23;;;5.13;;
65769;SDS011;52512;47.650;8.578;2023-05-02T10:23:55;7.90;;;5.27;;
65769;SDS011;52512;47.650;8.578;2023-05-02T10:26:21;10.43;;;5.17;;
65769;SDS011;52512;47.650;8.578;2023-05-02T10:28:50;7.20;;;5.00;;
65769;SDS011;52512;47.650;8.578;2023-05-02T10:31:17;8.50;;;5.50;;
65769;SDS011;52512;47.650;8.578;2023-05-02T10:33:43;6.27;;;5.17;;
65769;SDS011;52512;47.650;8.578;2023-05-02T10:36:12;5.90;;;4.67;;
65769;SDS011;52512;47.650;8.578;2023-05-02T10:38:39;8.90;;;6.33;;
65769;SDS011;52512;47.650;8.578;2023-05-02T10:41:09;12.87;;;4.77;;
65769;SDS011;52512;47.650;8.578;2023-05-02T10:43:40;5.70;;;4.53;;
65769;SDS011;52512;47.650;8.578;2023-05-02T10:46:29;8.87;;;4.33;;
65769;SDS011;52512;47.650;8.578;2023-05-02T10:49:02;5.40;;;4.47;;
65769;SDS011;52512;47.650;8.578;2023-05-02T10:51:30;5.27;;;4.80;;
65769;SDS011;52512;47.650;8.578;2023-05-02T10:59:37;4.73;;;4.23;;
65769;SDS011;52512;47.650;8.578;2023-05-02T11:02:49;12.40;;;4.60;;
65769;SDS011;52512;47.650;8.578;2023-05-02T11:05:01;6.20;;;4.90;;
65769;SDS011;52512;47.650;8.578;2023-05-02T11:07:32;5.23;;;4.07;;
65769;SDS011;52512;47.650;8.578;2023-05-02T11:12:44;12.53;;;4.50;;
65769;SDS011;52512;47.650;8.578;2023-05-02T11:18:03;7.27;;;4.37;;
65769;SDS011;52512;47.650;8.578;2023-05-02T11:20:40;4.63;;;4.20;;
65769;SDS011;52512;47.650;8.578;2023-05-02T11:25:46;6.63;;;4.73;;
65769;SDS011;52512;47.650;8.578;2023-05-02T11:31:06;8.47;;;5.40;;
65769;SDS011;52512;47.650;8.578;2023-05-02T11:33:34;15.83;;;4.93;;
65769;SDS011;52512;47.650;8.578;2023-05-02T11:36:00;6.43;;;4.93;;
65769;SDS011;52512;47.650;8.578;2023-05-02T11:38:27;6.60;;;4.80;;
65769;SDS011;52512;47.650;8.578;2023-05-02T11:41:00;10.90;;;4.60;;
65769;SDS011;52512;47.650;8.578;2023-05-02T11:43:28;6.97;;;4.07;;
65769;SDS011;52512;47.650;8.578;2023-05-02T11:45:54;5.50;;;3.27;;
65769;SDS011;52512;47.650;8.578;2023-05-02T11:48:23;6.20;;;3.57;;
65769;SDS011;52512;47.650;8.578;2023-05-02T11:50:55;4.87;;;3.63;;
65769;SDS011;52512;47.650;8.578;2023-05-02T11:53:25;2.70;;;2.50;;
65769;SDS011;52512;47.650;8.578;2023-05-02T11:55:57;10.13;;;2.90;;
65769;SDS011;52512;47.650;8.578;2023-05-02T11:58:24;4.23;;;2.83;;
65769;SDS011;52512;47.650;8.578;2023-05-02T12:00:53;2.83;;;2.57;;
65769;SDS011;52512;47.650;8.578;2023-05-02T12:03:28;5.00;;;2.43;;
65769;SDS011;52512;47.650;8.578;2023-05-02T12:05:55;2.90;;;2.53;;
65769;SDS011;52512;47.650;8.578;2023-05-02T12:08:22;6.17;;;3.13;;
65769;SDS011;52512;47.650;8.578;2023-05-02T12:10:51;2.83;;;2.53;;
65769;SDS011;52512;47.650;8.578;2023-05-02T12:13:17;3.23;;;2.93;;
65769;SDS011;52512;47.650;8.578;2023-05-02T12:15:44;3.43;;;3.10;;
65769;SDS011;52512;47.650;8.578;2023-05-02T12:18:11;7.27;;;3.60;;
65769;SDS011;52512;47.650;8.578;2023-05-02T12:20:37;6.47;;;4.57;;
65769;SDS011;52512;47.650;8.578;2023-05-02T12:23:04;12.90;;;4.87;;
65769;SDS011;52512;47.650;8.578;2023-05-02T12:25:38;5.93;;;5.03;;
65769;SDS011;52512;47.650;8.578;2023-05-02T12:28:07;9.30;;;5.57;;
65769;SDS011;52512;47.650;8.578;2023-05-02T12:30:34;7.13;;;4.43;;
65769;SDS011;52512;47.650;8.578;2023-05-02T12:33:05;11.60;;;5.67;;
65769;SDS011;52512;47.650;8.578;2023-05-02T12:35:32;9.73;;;4.93;;
65769;SDS011;52512;47.650;8.578;2023-05-02T12:40:35;6.53;;;4.33;;
65769;SDS011;52512;47.650;8.578;2023-05-02T12:43:01;5.43;;;4.20;;
65769;SDS011;52512;47.650;8.578;2023-05-02T12:45:29;9.57;;;4.40;;
65769;SDS011;52512;47.650;8.578;2023-05-02T12:48:02;8.03;;;4.00;;
65769;SDS011;52512;47.650;8.578;2023-05-02T12:50:45;6.83;;;4.00;;
65769;SDS011;52512;47.650;8.578;2023-05-02T12:53:11;5.87;;;4.27;;
65769;SDS011;52512;47.650;8.578;2023-05-02T12:55:37;10.07;;;4.27;;
65769;SDS011;52512;47.650;8.578;2023-05-02T12:58:07;6.00;;;4.17;;
65769;SDS011;52512;47.650;8.578;2023-05-02T13:00:37;5.00;;;3.90;;
65769;SDS011;52512;47.650;8.578;2023-05-02T13:03:04;3.97;;;3.67;;
65769;SDS011;52512;47.650;8.578;2023-05-02T13:05:30;3.60;;;2.60;;
65769;SDS011;52512;47.650;8.578;2023-05-02T13:07:56;12.93;;;3.20;;
65769;SDS011;52512;47.650;8.578;2023-05-02T13:10:23;3.17;;;2.90;;
65769;SDS011;52512;47.650;8.578;2023-05-02T13:12:50;4.07;;;3.33;;
65769;SDS011;52512;47.650;8.578;2023-05-02T13:15:16;5.27;;;2.73;;
65769;SDS011;52512;47.650;8.578;2023-05-02T13:17:43;3.50;;;3.20;;
65769;SDS011;52512;47.650;8.578;2023-05-02T13:20:09;4.90;;;3.90;;
65769;SDS011;52512;47.650;8.578;2023-05-02T13:22:36;5.70;;;3.90;;
65769;SDS011;52512;47.650;8.578;2023-05-02T13:25:05;2.47;;;2.27;;
65769;SDS011;52512;47.650;8.578;2023-05-02T13:27:37;4.70;;;3.67;;
65769;SDS011;52512;47.650;8.578;2023-05-02T13:30:03;3.33;;;3.03;;
65769;SDS011;52512;47.650;8.578;2023-05-02T13:32:29;4.90;;;2.90;;
65769;SDS011;52512;47.650;8.578;2023-05-02T13:34:54;4.07;;;2.90;;
65769;SDS011;52512;47.650;8.578;2023-05-02T13:37:20;7.30;;;3.50;;
65769;SDS011;52512;47.650;8.578;2023-05-02T13:39:46;6.43;;;3.97;;
65769;SDS011;52512;47.650;8.578;2023-05-02T13:42:12;3.53;;;3.07;;
65769;SDS011;52512;47.650;8.578;2023-05-02T13:44:38;3.97;;;3.23;;
65769;SDS011;52512;47.650;8.578;2023-05-02T13:47:04;3.80;;;3.43;;
65769;SDS011;52512;47.650;8.578;2023-05-02T13:49:29;5.30;;;3.90;;
65769;SDS011;52512;47.650;8.578;2023-05-02T13:51:55;3.47;;;3.10;;
65769;SDS011;52512;47.650;8.578;2023-05-02T13:54:21;3.93;;;3.03;;
65769;SDS011;52512;47.650;8.578;2023-05-02T13:56:46;10.73;;;3.10;;
65769;SDS011;52512;47.650;8.578;2023-05-02T13:59:12;3.83;;;3.00;;
65769;SDS011;52512;47.650;8.578;2023-05-02T14:01:38;15.20;;;4.23;;
65769;SDS011;52512;47.650;8.578;2023-05-02T14:04:06;3.30;;;2.63;;
65769;SDS011;52512;47.650;8.578;2023-05-02T14:06:32;4.20;;;2.90;;
65769;SDS011;52512;47.650;8.578;2023-05-02T14:08:58;2.60;;;2.40;;
65769;SDS011;52512;47.650;8.578;2023-05-02T14:11:24;3.30;;;3.00;;
65769;SDS011;52512;47.650;8.578;2023-05-02T14:13:51;5.43;;;3.00;;
65769;SDS011;52512;47.650;8.578;2023-05-02T14:16:16;3.13;;;2.87;;
65769;SDS011;52512;47.650;8.578;2023-05-02T14:18:42;2.80;;;2.60;;
65769;SDS011;52512;47.650;8.578;2023-05-02T14:21:15;3.10;;;2.50;;
65769;SDS011;52512;47.650;8.578;2023-05-02T14:23:41;4.80;;;2.80;;
65769;SDS011;52512;47.650;8.578;2023-05-02T14:26:07;3.27;;;2.70;;
65769;SDS011;52512;47.650;8.578;2023-05-02T14:28:32;3.10;;;2.57;;
65769;SDS011;52512;47.650;8.578;2023-05-02T14:30:59;3.63;;;3.07;;
65769;SDS011;52512;47.650;8.578;2023-05-02T14:33:25;2.50;;;2.30;;
65769;SDS011;52512;47.650;8.578;2023-05-02T14:35:51;7.20;;;2.90;;
65769;SDS011;52512;47.650;8.578;2023-05-02T14:38:16;7.03;;;2.80;;
65769;SDS011;52512;47.650;8.578;2023-05-02T14:40:42;2.70;;;2.50;;
65769;SDS011;52512;47.650;8.578;2023-05-02T14:43:08;3.07;;;2.20;;
65769;SDS011;52512;47.650;8.578;2023-05-02T14:45:35;3.50;;;2.50;;
65769;SDS011;52512;47.650;8.578;2023-05-02T14:48:01;2.23;;;2.10;;
65769;SDS011;52512;47.650;8.578;2023-05-02T14:50:27;4.33;;;3.20;;
65769;SDS011;52512;47.650;8.578;2023-05-02T14:52:52;2.43;;;2.20;;
65769;SDS011;52512;47.650;8.578;2023-05-02T14:55:18;2.73;;;1.80;;
65769;SDS011;52512;47.650;8.578;2023-05-02T14:57:44;3.53;;;2.10;;
65769;SDS011;52512;47.650;8.578;2023-05-02T15:00:10;3.20;;;2.17;;
65769;SDS011;52512;47.650;8.578;2023-05-02T15:02:36;4.40;;;2.07;;
65769;SDS011;52512;47.650;8.578;2023-05-02T15:05:02;3.67;;;1.73;;
65769;SDS011;52512;47.650;8.578;2023-05-02T15:07:29;2.50;;;2.27;;
65769;SDS011;52512;47.650;8.578;2023-05-02T15:09:55;2.40;;;2.20;;
65769;SDS011;52512;47.650;8.578;2023-05-02T15:12:21;3.13;;;2.10;;
65769;SDS011;52512;47.650;8.578;2023-05-02T15:14:47;4.73;;;1.80;;
65769;SDS011;52512;47.650;8.578;2023-05-02T15:17:12;1.83;;;1.73;;
65769;SDS011;52512;47.650;8.578;2023-05-02T15:19:38;2.53;;;2.33;;
65769;SDS011;52512;47.650;8.578;2023-05-02T15:22:04;2.20;;;2.10;;
65769;SDS011;52512;47.650;8.578;2023-05-02T15:24:29;2.03;;;1.87;;
65769;SDS011;52512;47.650;8.578;2023-05-02T15:26:55;2.77;;;2.57;;
65769;SDS011;52512;47.650;8.578;2023-05-02T15:29:21;5.57;;;2.33;;